KTVF/TVF METAR and TAF weather

Enter ICAO airport designator
Station Type Date Time Source
KTVF METAR 2021/07/28 04:56 UTC NOAA

KTVF 280456Z AUTO 12009KT 10SM CLR 22/16 A2994 RMK AO2 SLP134 T02170161 403000150


Station Type Date Time Source
KTVF Decoded METAR 2021/07/28 04:56 UTC NOAA

Thief River Falls, Thief River Falls Regional Airport, MN, United States (KTVF) 48-04N 096-11W
Jul 28, 2021 - 12:56 AM EDT / 2021.07.28 0456 UTC
Wind: from the ESE (120 degrees) at 10 MPH (9 KT):0
Visibility: 10 mile(s):0
Sky conditions: clear
Temperature: 71.1 F (21.7 C)
Dew Point: 61.0 F (16.1 C)
Relative Humidity: 70%
Pressure (altimeter): 29.94 in. Hg (1013 hPa)
ob: KTVF 280456Z AUTO 12009KT 10SM CLR 22/16 A2994 RMK AO2 SLP134 T02170161 403000150
cycle: 5

Station Type Date Time Source
KTVF TAF 2021/07/27 22:45 UTC NOAA

TAF
AMD KTVF 272142Z 2722/2818 12007KT P6SM SCT200
FM281400 18009KT P6SM BKN250
FM281600 22010KT P6SM SCT250

Example: see airport list